Time;durP1;ratioP1;P1;durP2;ratioP2;P2;SDS_P1;SDS_P2;PMS_P1;PMS_P2;Temp;Humidity;BMP_temperature;BMP_pressure;BME280_temperature;BME280_humidity;BME280_pressure;Samples;Min_cycle;Max_cycle;Signal;HPM_P1;HPM_P2
2021/10/14 00:00:50;;;;;;;9.68;5.25;;;;;;;8.32;84.97;101386.84;5005690;28;20820;-78
2021/10/14 00:03:15;;;;;;;7.78;5.55;;;;;;;8.29;85.17;101386.81;5004007;28;20555;-79
2021/10/14 00:05:41;;;;;;;10.30;5.32;;;;;;;8.22;87.47;101395.44;5012218;28;20103;-80
2021/10/14 00:08:06;;;;;;;8.80;5.32;;;;;;;8.21;87.17;101394.56;5018188;28;20042;-80
2021/10/14 00:10:31;;;;;;;9.65;6.43;;;;;;;8.24;87.74;101399.00;5017869;28;20038;-79
2021/10/14 00:12:57;;;;;;;8.57;5.50;;;;;;;8.27;87.67;101385.88;5020039;28;20050;-79
2021/10/14 00:15:23;;;;;;;10.25;5.53;;;;;;;8.33;87.18;101389.53;5035472;28;20056;-80
2021/10/14 00:17:49;;;;;;;11.80;6.53;;;;;;;8.36;87.86;101386.06;5014477;28;20026;-80
2021/10/14 00:20:14;;;;;;;6.75;5.00;;;;;;;8.44;87.19;101387.09;5034143;28;20042;-81
2021/10/14 00:22:40;;;;;;;8.13;4.47;;;;;;;8.51;86.93;101388.06;5014796;28;20034;-79
2021/10/14 00:25:05;;;;;;;10.65;5.20;;;;;;;8.52;86.92;101377.59;5017817;28;20046;-80
2021/10/14 00:27:30;;;;;;;7.82;4.97;;;;;;;8.52;86.52;101381.97;5021147;28;20041;-80
2021/10/14 00:29:57;;;;;;;7.47;5.07;;;;;;;8.46;86.89;101384.47;5017928;28;20049;-80
2021/10/14 00:32:22;;;;;;;8.52;5.82;;;;;;;8.45;86.50;101385.34;5032273;28;20034;-79
2021/10/14 00:34:47;;;;;;;10.05;4.80;;;;;;;8.42;87.04;101383.56;5036653;28;20109;-80
2021/10/14 00:37:13;;;;;;;8.90;5.05;;;;;;;8.40;87.31;101376.50;5019915;28;20038;-79
2021/10/14 00:39:38;;;;;;;10.32;5.28;;;;;;;8.39;86.79;101369.44;5018654;28;20046;-80
2021/10/14 00:42:03;;;;;;;9.25;6.03;;;;;;;8.36;87.34;101375.53;5016647;28;20033;-80
2021/10/14 00:44:42;;;;;;;7.35;5.13;;;;;;;8.40;87.19;101368.59;5041962;28;20098;-80
2021/10/14 00:47:07;;;;;;;8.23;5.82;;;;;;;8.38;87.38;101360.63;5018792;28;20125;-80
2021/10/14 00:49:32;;;;;;;8.93;5.60;;;;;;;8.43;87.08;101359.00;5035590;28;20034;-79
2021/10/14 00:51:58;;;;;;;8.32;6.30;;;;;;;8.40;87.23;101358.09;5018338;28;20030;-79
2021/10/14 00:54:23;;;;;;;12.98;6.13;;;;;;;8.42;87.64;101356.38;5023432;28;20037;-80
2021/10/14 00:56:48;;;;;;;11.35;5.60;;;;;;;8.39;87.64;101357.19;5022446;28;20053;-77
2021/10/14 00:59:15;;;;;;;9.73;5.57;;;;;;;8.44;87.62;101362.53;5018609;28;20077;-79
2021/10/14 01:01:40;;;;;;;9.43;5.38;;;;;;;8.41;87.69;101359.84;5035902;28;20052;-80
2021/10/14 01:04:06;;;;;;;9.52;5.82;;;;;;;8.46;87.12;101351.19;5018501;28;20038;-78
2021/10/14 01:06:31;;;;;;;7.90;5.20;;;;;;;8.53;86.98;101355.66;5019652;28;20045;-77
2021/10/14 01:08:57;;;;;;;7.35;4.55;;;;;;;8.54;86.86;101351.28;5018363;28;20037;-79
2021/10/14 01:11:24;;;;;;;6.45;4.90;;;;;;;8.52;86.95;101346.00;5021964;28;20022;-78
2021/10/14 01:13:49;;;;;;;10.45;5.63;;;;;;;8.51;87.33;101345.97;5023173;28;20037;-78
2021/10/14 01:16:14;;;;;;;8.93;5.20;;;;;;;8.53;87.09;101345.13;5023570;28;20061;-81
2021/10/14 01:18:40;;;;;;;9.45;5.95;;;;;;;8.49;86.86;101348.59;5029840;28;20034;-80
2021/10/14 01:21:05;;;;;;;10.27;5.50;;;;;;;8.48;87.36;101336.28;5023028;28;20045;-79
2021/10/14 01:23:30;;;;;;;9.88;5.35;;;;;;;8.47;87.39;101341.53;5021594;28;20053;-80
2021/10/14 01:25:56;;;;;;;9.02;4.72;;;;;;;8.45;87.74;101341.50;5022700;28;20057;-79
2021/10/14 01:28:21;;;;;;;11.07;5.22;;;;;;;8.51;87.69;101345.97;5020010;28;20038;-79
2021/10/14 01:30:46;;;;;;;9.50;5.25;;;;;;;8.55;87.19;101342.53;5022697;28;20124;-80
2021/10/14 01:33:12;;;;;;;10.98;5.72;;;;;;;8.56;87.15;101336.41;5024260;28;20038;-80
2021/10/14 01:35:37;;;;;;;8.93;5.28;;;;;;;8.61;87.48;101332.09;5030593;28;20038;-79
2021/10/14 01:38:03;;;;;;;9.25;5.18;;;;;;;8.65;87.25;101343.56;5037254;28;20033;-82
2021/10/14 01:40:28;;;;;;;10.18;5.90;;;;;;;8.66;86.68;101335.69;5023390;28;20474;-81
2021/10/14 01:42:53;;;;;;;11.00;6.00;;;;;;;8.65;86.80;101326.03;5023842;28;20072;-80
2021/10/14 01:45:19;;;;;;;10.32;5.70;;;;;;;8.66;87.37;101333.06;5021065;28;20135;-80
2021/10/14 01:47:44;;;;;;;10.07;6.00;;;;;;;8.69;87.33;101330.44;5022501;28;20476;-80
2021/10/14 01:50:09;;;;;;;8.57;4.18;;;;;;;8.77;87.08;101334.06;5018536;28;20054;-81
2021/10/14 01:52:35;;;;;;;8.18;5.47;;;;;;;8.81;86.83;101334.16;5022357;28;20041;-80
2021/10/14 01:55:00;;;;;;;9.40;6.13;;;;;;;8.81;86.88;101332.38;5034608;28;20537;-79
2021/10/14 01:57:25;;;;;;;8.88;6.00;;;;;;;8.80;86.96;101338.50;5021832;28;20042;-80
2021/10/14 01:59:51;;;;;;;8.75;4.82;;;;;;;8.82;86.82;101331.50;5035718;28;20106;-81
2021/10/14 02:02:16;;;;;;;10.45;5.53;;;;;;;8.83;86.97;101335.03;5021574;28;20035;-79
2021/10/14 02:04:41;;;;;;;8.63;4.80;;;;;;;8.83;86.77;101333.31;5020563;28;20038;-79
2021/10/14 02:07:07;;;;;;;9.55;5.05;;;;;;;8.86;86.88;101335.09;5027073;28;20045;-79
2021/10/14 02:09:32;;;;;;;9.52;4.63;;;;;;;8.85;87.11;101331.56;5021001;28;20034;-79
2021/10/14 02:11:57;;;;;;;10.75;5.35;;;;;;;8.87;86.81;101329.84;5021907;28;20045;-81
2021/10/14 02:14:23;;;;;;;8.27;4.68;;;;;;;8.87;87.12;101328.94;5034938;28;20061;-78
2021/10/14 02:16:49;;;;;;;7.72;4.25;;;;;;;8.87;86.95;101331.59;5022256;28;20029;-80
2021/10/14 02:19:14;;;;;;;8.35;5.28;;;;;;;8.88;86.80;101325.44;5020253;28;20046;-80
2021/10/14 02:21:40;;;;;;;10.50;5.55;;;;;;;8.91;87.34;101330.78;5023032;28;20037;-79
2021/10/14 02:24:05;;;;;;;12.10;5.95;;;;;;;8.90;87.04;101329.88;5035722;28;20038;-80
2021/10/14 02:26:30;;;;;;;8.88;5.32;;;;;;;8.93;86.86;101323.75;5022770;28;20034;-79
2021/10/14 02:28:56;;;;;;;10.52;5.25;;;;;;;8.97;86.58;101325.59;5023171;28;20093;-81
2021/10/14 02:31:21;;;;;;;10.10;5.30;;;;;;;8.95;86.58;101324.66;5026700;28;20050;-79
2021/10/14 02:33:47;;;;;;;9.52;5.30;;;;;;;8.98;86.54;101327.34;5023827;28;20041;-80
2021/10/14 02:36:12;;;;;;;9.45;5.43;;;;;;;8.98;87.22;101324.69;5023298;28;20101;-81
2021/10/14 02:38:37;;;;;;;9.25;4.60;;;;;;;9.03;86.54;101315.13;5039652;28;20052;-81
2021/10/14 02:41:03;;;;;;;9.82;5.38;;;;;;;9.05;86.41;101317.78;5022304;28;20042;-79
2021/10/14 02:43:29;;;;;;;7.93;4.88;;;;;;;9.04;86.78;101316.00;5023918;28;20034;-82
2021/10/14 02:45:54;;;;;;;10.77;5.28;;;;;;;9.07;86.69;101327.47;5022426;28;20041;-79
2021/10/14 02:48:20;;;;;;;10.65;5.30;;;;;;;8.95;87.13;101316.78;5025938;28;20089;-80
2021/10/14 02:50:45;;;;;;;8.10;4.88;;;;;;;8.96;86.93;101314.19;5021812;28;20045;-78
2021/10/14 02:53:10;;;;;;;8.15;4.93;;;;;;;9.09;86.82;101323.13;5024247;28;20042;-79
2021/10/14 02:55:36;;;;;;;10.40;5.95;;;;;;;9.10;86.60;101314.34;5021813;28;20038;-79
2021/10/14 02:58:01;;;;;;;9.88;5.53;;;;;;;9.15;86.66;101317.91;5023159;28;20026;-78
2021/10/14 03:00:26;;;;;;;10.48;4.70;;;;;;;9.15;86.18;101319.66;5024192;28;20101;-78
2021/10/14 03:02:51;;;;;;;11.55;5.90;;;;;;;9.14;86.87;101313.53;5026645;28;20476;-79
2021/10/14 03:05:17;;;;;;;12.88;6.00;;;;;;;9.16;86.34;101313.53;5039225;28;20057;-78
2021/10/14 03:07:43;;;;;;;9.77;6.25;;;;;;;9.20;86.89;101310.97;5024500;28;20046;-79
2021/10/14 03:10:08;;;;;;;13.57;7.60;;;;;;;9.21;86.59;101309.19;5029517;28;20539;-78
2021/10/14 03:12:34;;;;;;;12.60;6.18;;;;;;;9.26;86.92;101307.50;5036288;28;20039;-77
2021/10/14 03:14:59;;;;;;;8.50;5.57;;;;;;;9.30;86.57;101317.22;5041013;28;20030;-79
2021/10/14 03:17:24;;;;;;;9.95;6.65;;;;;;;9.37;86.41;101315.53;5027613;28;20093;-79
2021/10/14 03:19:50;;;;;;;11.18;6.10;;;;;;;9.40;86.20;101310.28;5022589;28;20068;-78
2021/10/14 03:22:15;;;;;;;9.88;5.60;;;;;;;9.37;86.17;101311.13;5018936;28;20034;-80
2021/10/14 03:24:40;;;;;;;12.25;6.07;;;;;;;9.42;86.47;101303.28;5021835;28;20087;-79
2021/10/14 03:27:06;;;;;;;10.15;5.97;;;;;;;9.41;86.23;101306.81;5022272;28;20112;-77
2021/10/14 03:29:31;;;;;;;10.90;6.22;;;;;;;9.33;86.36;101308.47;5021965;28;20041;-79
2021/10/14 03:31:56;;;;;;;10.43;6.95;;;;;;;9.29;86.99;101306.66;5020471;28;20061;-76
2021/10/14 03:34:22;;;;;;;10.57;6.75;;;;;;;9.32;87.55;101299.66;5035938;28;20033;-79
2021/10/14 03:36:47;;;;;;;11.48;6.88;;;;;;;9.35;87.28;101306.72;5021405;28;20042;-78
2021/10/14 03:39:12;;;;;;;12.77;7.25;;;;;;;9.38;87.33;101305.03;5022267;28;20053;-77
2021/10/14 03:41:38;;;;;;;9.98;6.68;;;;;;;9.41;87.03;101302.41;5019723;28;20121;-78
2021/10/14 03:44:03;;;;;;;12.38;8.27;;;;;;;9.39;87.84;101300.63;5023679;28;20052;-77
2021/10/14 03:46:28;;;;;;;11.98;8.50;;;;;;;9.38;87.80;101310.28;5019509;28;20042;-78
2021/10/14 03:48:54;;;;;;;15.48;8.35;;;;;;;9.35;87.53;101311.97;5028922;28;20076;-78
2021/10/14 03:51:19;;;;;;;14.23;8.70;;;;;;;9.31;87.98;101304.94;5023132;28;20097;-77
2021/10/14 03:53:44;;;;;;;16.77;8.10;;;;;;;9.29;89.00;101307.53;5009659;28;20065;-77
2021/10/14 03:56:10;;;;;;;13.38;9.85;;;;;;;9.23;88.61;101304.84;5008072;28;20042;-77
2021/10/14 03:58:35;;;;;;;11.27;8.23;;;;;;;9.30;88.84;101303.16;5011762;28;20041;-78
2021/10/14 04:01:01;;;;;;;12.65;8.35;;;;;;;9.37;89.19;101299.72;5007726;28;20042;-78
2021/10/14 04:03:26;;;;;;;15.15;9.82;;;;;;;9.34;88.63;101302.31;5011939;28;20072;-78
2021/10/14 04:05:51;;;;;;;13.23;9.20;;;;;;;9.37;88.41;101299.72;5005811;28;20073;-78
2021/10/14 04:08:16;;;;;;;12.77;9.30;;;;;;;9.41;88.88;101288.38;5015820;28;20033;-79
2021/10/14 04:10:42;;;;;;;13.98;9.27;;;;;;;9.47;88.71;101291.06;5026587;28;20109;-78
2021/10/14 04:13:07;;;;;;;16.63;9.88;;;;;;;9.43;88.09;101284.88;5020335;28;20042;-77
2021/10/14 04:15:32;;;;;;;13.70;9.30;;;;;;;9.46;88.43;101293.66;5020264;28;20034;-79
2021/10/14 04:17:58;;;;;;;26.33;18.23;;;;;;;9.44;88.00;101289.25;5018260;28;20040;-77
2021/10/14 04:20:24;;;;;;;14.65;9.80;;;;;;;9.41;88.54;101285.72;5023446;28;20045;-78
2021/10/14 04:22:51;;;;;;;15.30;9.45;;;;;;;9.44;88.52;101286.63;5024136;28;20033;-77
2021/10/14 04:25:16;;;;;;;18.00;10.52;;;;;;;9.45;88.78;101287.50;5013223;28;20409;-79
2021/10/14 04:27:41;;;;;;;13.30;9.43;;;;;;;9.47;88.83;101285.78;5012715;28;20049;-79
2021/10/14 04:30:07;;;;;;;14.57;9.02;;;;;;;9.50;88.57;101285.81;5013962;28;20029;-80
2021/10/14 04:32:33;;;;;;;16.10;11.50;;;;;;;9.54;89.10;101287.63;5012063;28;20038;-80
2021/10/14 04:34:58;;;;;;;14.60;10.38;;;;;;;9.56;89.05;101285.91;5009854;28;20048;-79
2021/10/14 04:37:24;;;;;;;16.27;10.35;;;;;;;9.64;88.74;101278.94;5006325;28;20030;-80
2021/10/14 04:39:50;;;;;;;17.25;11.10;;;;;;;9.70;87.97;101274.59;5007896;28;20068;-80
2021/10/14 04:42:16;;;;;;;15.45;9.82;;;;;;;9.72;88.05;101264.94;5011226;28;20038;-79
2021/10/14 04:44:41;;;;;;;14.85;10.23;;;;;;;9.73;87.70;101261.44;5012187;28;20038;-80
2021/10/14 04:47:06;;;;;;;17.52;11.07;;;;;;;9.64;87.95;101254.31;5005822;28;20036;-80
2021/10/14 04:49:33;;;;;;;18.45;10.65;;;;;;;9.63;88.05;101250.78;5009100;28;20080;-78
2021/10/14 04:51:58;;;;;;;15.55;10.68;;;;;;;9.66;88.15;101256.09;5003720;28;20122;-79
2021/10/14 04:54:24;;;;;;;17.50;12.23;;;;;;;9.66;87.97;101249.94;5007373;28;20513;-79
2021/10/14 04:56:49;;;;;;;15.68;11.00;;;;;;;9.70;87.81;101243.84;5009443;28;20042;-80
2021/10/14 04:59:15;;;;;;;18.60;12.50;;;;;;;9.73;87.99;101248.25;5011593;28;20045;-79
2021/10/14 05:01:40;;;;;;;18.80;12.98;;;;;;;9.62;87.97;101249.03;5011093;28;20053;-79
2021/10/14 05:04:05;;;;;;;17.50;10.95;;;;;;;9.71;88.04;101247.34;5012620;28;20037;-79
2021/10/14 05:06:31;;;;;;;18.75;11.48;;;;;;;9.65;88.29;101249.06;5006100;28;20042;-79
2021/10/14 05:08:56;;;;;;;15.00;10.88;;;;;;;9.65;88.60;101253.47;5004814;28;20044;-79
2021/10/14 05:11:21;;;;;;;16.67;10.70;;;;;;;9.72;88.19;101243.84;5002153;28;20039;-79
2021/10/14 05:13:47;;;;;;;17.50;12.68;;;;;;;9.68;87.89;101242.94;5005470;28;20061;-79
2021/10/14 05:16:12;;;;;;;16.55;10.80;;;;;;;9.61;89.20;101243.75;5001724;28;20096;-79
2021/10/14 05:18:38;;;;;;;16.05;11.80;;;;;;;9.52;89.38;101241.91;5002874;28;20046;-78
2021/10/14 05:21:03;;;;;;;18.52;11.38;;;;;;;9.61;89.09;101241.97;5008951;28;20041;-78
2021/10/14 05:23:29;;;;;;;12.38;9.63;;;;;;;9.65;89.04;101238.53;5003516;28;20089;-79
2021/10/14 05:25:54;;;;;;;16.65;12.38;;;;;;;9.64;89.06;101242.03;5003823;28;20052;-78
2021/10/14 05:28:19;;;;;;;16.38;11.30;;;;;;;9.63;89.24;101240.25;5014911;28;20073;-79
2021/10/14 05:30:46;;;;;;;15.65;11.60;;;;;;;9.75;88.80;101241.25;5003101;28;20050;-79
2021/10/14 05:33:11;;;;;;;14.32;11.02;;;;;;;9.79;88.54;101237.75;4986655;28;20455;-78
2021/10/14 05:35:37;;;;;;;13.43;11.60;;;;;;;9.72;88.74;101236.84;5017327;28;20126;-79
2021/10/14 05:38:03;;;;;;;13.25;11.52;;;;;;;9.72;88.71;101236.84;5003873;28;20038;-79
2021/10/14 05:40:29;;;;;;;14.70;11.27;;;;;;;9.72;88.79;101238.56;5001645;28;20116;-79
2021/10/14 05:42:55;;;;;;;13.43;10.15;;;;;;;9.67;88.97;101241.19;5004736;28;20033;-79
2021/10/14 05:45:20;;;;;;;14.27;9.68;;;;;;;9.65;89.34;101238.53;5002089;28;20640;-79
2021/10/14 05:47:46;;;;;;;16.65;10.75;;;;;;;9.60;89.86;101240.22;5004308;28;20042;-78
2021/10/14 05:50:11;;;;;;;20.48;12.63;;;;;;;9.69;90.25;101238.53;5017170;28;20069;-78
2021/10/14 05:52:36;;;;;;;19.70;13.32;;;;;;;9.73;90.27;101243.00;5003511;28;20555;-78
2021/10/14 05:55:02;;;;;;;19.83;12.63;;;;;;;9.83;89.51;101242.19;5002808;28;20053;-79
2021/10/14 05:57:28;;;;;;;18.38;12.57;;;;;;;9.82;89.82;101248.31;5004469;28;20049;-79
2021/10/14 05:59:55;;;;;;;14.80;10.38;;;;;;;9.85;89.63;101248.34;5006251;28;20045;-79
2021/10/14 06:02:21;;;;;;;14.95;11.18;;;;;;;9.86;89.74;101250.13;5001422;28;20030;-78
2021/10/14 06:04:46;;;;;;;13.07;9.38;;;;;;;9.92;89.07;101246.66;5005634;28;20164;-79
2021/10/14 06:07:11;;;;;;;16.13;12.13;;;;;;;9.85;89.30;101237.78;5024302;28;20045;-78
2021/10/14 06:09:36;;;;;;;12.60;10.10;;;;;;;9.89;88.73;101244.88;5011927;28;20117;-77
2021/10/14 06:12:02;;;;;;;13.80;9.80;;;;;;;9.95;89.17;101237.00;5030896;28;20187;-78
2021/10/14 06:14:27;;;;;;;13.07;9.88;;;;;;;10.00;88.64;101239.69;5011465;28;20042;-78
2021/10/14 06:16:53;;;;;;;23.15;12.35;;;;;;;9.87;88.66;101239.56;5016542;28;20041;-78
2021/10/14 06:19:18;;;;;;;12.82;9.38;;;;;;;9.78;89.38;101242.16;5012779;28;20041;-77
2021/10/14 06:21:43;;;;;;;14.63;10.30;;;;;;;9.73;90.58;101237.72;5013252;28;20042;-78
2021/10/14 06:24:10;;;;;;;13.15;9.68;;;;;;;9.71;90.31;101240.31;5011651;28;20065;-78
2021/10/14 06:26:35;;;;;;;13.48;9.88;;;;;;;9.72;90.32;101243.84;4995763;28;20038;-78
2021/10/14 06:29:00;;;;;;;13.32;9.25;;;;;;;9.71;90.58;101237.69;5013780;28;20061;-78
2021/10/14 06:31:26;;;;;;;10.38;8.35;;;;;;;9.77;90.87;101242.13;5012588;28;20026;-79
2021/10/14 06:33:51;;;;;;;13.13;9.23;;;;;;;9.78;90.39;101238.63;5013048;28;20389;-78
2021/10/14 06:36:16;;;;;;;9.75;7.43;;;;;;;9.82;90.24;101240.41;5017124;28;20113;-78
2021/10/14 06:38:42;;;;;;;10.77;7.43;;;;;;;9.77;90.76;101242.13;5016283;28;20116;-78
2021/10/14 06:41:07;;;;;;;13.63;9.40;;;;;;;9.84;91.25;101241.31;5027258;28;20092;-78
2021/10/14 06:43:32;;;;;;;10.93;8.68;;;;;;;9.84;90.27;101238.69;5019213;28;20038;-78
2021/10/14 06:45:58;;;;;;;13.15;8.63;;;;;;;9.86;90.47;101242.22;5013428;28;20038;-78
2021/10/14 06:48:23;;;;;;;11.27;8.63;;;;;;;9.88;90.70;101238.72;5012251;28;20041;-78
2021/10/14 06:50:48;;;;;;;13.32;8.65;;;;;;;9.97;90.69;101237.91;5028506;28;20069;-77
2021/10/14 06:53:14;;;;;;;10.55;7.03;;;;;;;10.05;90.68;101233.56;5028109;28;20084;-78
2021/10/14 06:55:40;;;;;;;10.50;7.63;;;;;;;10.00;90.37;101229.13;5008621;28;20038;-77
2021/10/14 06:58:06;;;;;;;14.15;9.88;;;;;;;10.09;90.42;101237.13;5029376;28;20105;-78
2021/10/14 07:00:31;;;;;;;11.13;8.43;;;;;;;10.04;90.11;101226.53;5014350;28;20093;-77
2021/10/14 07:02:57;;;;;;;9.73;7.80;;;;;;;10.06;90.39;101230.06;5013646;28;20089;-79
2021/10/14 07:05:23;;;;;;;9.15;7.20;;;;;;;10.13;90.03;101228.34;5017324;28;20105;-77
2021/10/14 07:07:48;;;;;;;11.23;7.82;;;;;;;10.02;90.22;101228.28;5011968;28;20030;-79
2021/10/14 07:10:15;;;;;;;11.35;7.57;;;;;;;10.07;90.22;101223.91;5017474;28;20040;-79
2021/10/14 07:12:41;;;;;;;10.60;7.88;;;;;;;10.13;90.17;101228.34;5012080;28;20042;-78
2021/10/14 07:15:08;;;;;;;9.50;7.65;;;;;;;10.13;90.04;101230.09;5016369;28;20045;-78
2021/10/14 07:17:34;;;;;;;10.32;8.35;;;;;;;10.14;90.36;101226.59;5014643;28;20042;-78
2021/10/14 07:20:00;;;;;;;10.13;7.22;;;;;;;10.20;89.71;101224.00;5018213;28;20042;-79
2021/10/14 07:22:26;;;;;;;10.20;8.48;;;;;;;10.14;90.35;101227.50;5030471;28;20132;-77
2021/10/14 07:24:51;;;;;;;9.00;8.10;;;;;;;10.11;90.82;101232.72;5030649;28;20089;-78
2021/10/14 07:27:17;;;;;;;12.13;8.85;;;;;;;10.17;90.80;101227.50;5015579;28;20089;-78
2021/10/14 07:29:42;;;;;;;10.25;7.50;;;;;;;10.17;90.75;101231.91;5030336;28;20038;-79
2021/10/14 07:32:08;;;;;;;9.70;8.23;;;;;;;10.16;90.71;101230.13;5015126;28;20041;-78
2021/10/14 07:34:34;;;;;;;8.68;7.75;;;;;;;10.25;90.79;101227.56;5015864;28;20492;-78
2021/10/14 07:36:59;;;;;;;10.05;8.70;;;;;;;10.26;90.72;101229.31;5013881;28;20038;-77
2021/10/14 07:39:25;;;;;;;7.78;6.35;;;;;;;10.28;90.71;101232.88;5018027;28;20045;-79
2021/10/14 07:41:50;;;;;;;10.13;8.25;;;;;;;10.32;90.80;101234.66;5018167;28;20034;-78
2021/10/14 07:44:17;;;;;;;14.23;9.70;;;;;;;10.40;91.01;101229.41;5018150;28;20038;-78
2021/10/14 07:46:43;;;;;;;10.40;6.93;;;;;;;10.44;90.72;101242.66;5018603;28;20088;-78
2021/10/14 07:49:09;;;;;;;10.13;8.05;;;;;;;10.44;90.59;101237.38;5016627;28;20029;-78
2021/10/14 07:51:35;;;;;;;8.88;8.02;;;;;;;10.50;90.04;101240.03;5014542;28;20030;-79
2021/10/14 07:54:02;;;;;;;8.85;7.90;;;;;;;10.50;90.58;101237.38;5022315;28;20073;-78
2021/10/14 07:56:27;;;;;;;8.70;7.35;;;;;;;10.47;90.37;101241.78;5020782;28;20038;-78
2021/10/14 07:58:52;;;;;;;9.15;7.22;;;;;;;10.41;91.15;101241.75;5014821;28;20101;-78
2021/10/14 08:01:18;;;;;;;7.40;6.07;;;;;;;10.50;90.29;101242.66;5014627;28;20066;-79
2021/10/14 08:03:43;;;;;;;10.43;9.32;;;;;;;10.51;90.12;101244.44;5015703;28;20033;-79
2021/10/14 08:06:08;;;;;;;10.77;8.27;;;;;;;10.55;90.99;101236.53;5014588;28;20098;-78
2021/10/14 08:08:33;;;;;;;8.02;6.95;;;;;;;10.64;90.30;101233.97;5014416;28;20072;-79
2021/10/14 08:10:59;;;;;;;8.80;7.30;;;;;;;10.67;90.02;101240.13;5012413;28;20054;-78
2021/10/14 08:13:25;;;;;;;8.60;7.53;;;;;;;10.77;89.75;101246.34;5015856;28;20045;-78
2021/10/14 08:15:52;;;;;;;8.25;7.10;;;;;;;10.78;89.30;101245.47;5012717;28;20034;-78
2021/10/14 08:18:18;;;;;;;9.75;7.57;;;;;;;10.77;88.90;101232.25;4997787;28;20032;-79
2021/10/14 08:20:44;;;;;;;8.93;7.50;;;;;;;10.86;89.76;101237.56;5027983;28;20037;-79
2021/10/14 08:23:10;;;;;;;7.45;6.03;;;;;;;10.94;89.10;101238.47;5015243;28;20044;-79
2021/10/14 08:25:36;;;;;;;11.73;7.38;;;;;;;10.86;88.71;101240.22;5017073;28;20029;-78
2021/10/14 08:28:01;;;;;;;10.05;7.75;;;;;;;10.78;89.72;101240.19;5030502;28;20045;-77
2021/10/14 08:30:27;;;;;;;10.18;8.25;;;;;;;10.78;89.67;101232.25;5014023;28;20038;-78
2021/10/14 08:32:54;;;;;;;9.52;7.40;;;;;;;10.82;89.84;101233.13;5013800;28;20034;-78
2021/10/14 08:35:20;;;;;;;9.68;6.20;;;;;;;10.79;90.19;101234.00;5013864;28;20042;-78
2021/10/14 08:37:47;;;;;;;10.25;8.18;;;;;;;10.68;90.51;101236.59;5028197;28;20862;-79
2021/10/14 08:40:13;;;;;;;9.98;7.00;;;;;;;10.75;90.37;101232.25;5018522;28;20037;-79
2021/10/14 08:42:39;;;;;;;9.27;7.13;;;;;;;10.80;89.99;101222.59;5017188;28;20041;-78
2021/10/14 08:45:07;;;;;;;9.50;7.63;;;;;;;10.87;89.81;101234.94;5018212;28;20133;-78
2021/10/14 08:47:33;;;;;;;9.48;8.23;;;;;;;10.82;90.01;101238.41;5014420;28;20401;-79
2021/10/14 08:49:59;;;;;;;10.02;8.10;;;;;;;10.79;90.00;101228.72;5017262;28;20042;-78
2021/10/14 08:52:25;;;;;;;9.65;7.10;;;;;;;10.77;89.57;101227.88;5014265;28;20405;-77
2021/10/14 08:54:50;;;;;;;11.40;8.20;;;;;;;10.85;89.96;101234.06;5013847;28;20053;-79
2021/10/14 08:57:15;;;;;;;10.10;9.00;;;;;;;10.83;89.48;101235.81;5017914;28;20034;-77
2021/10/14 08:59:40;;;;;;;12.93;9.05;;;;;;;11.03;89.80;101237.63;4997590;28;20038;-79
2021/10/14 09:02:10;;;;;;;8.98;8.10;;;;;;;11.18;88.57;101237.66;5031712;28;20053;-79
2021/10/14 09:04:40;;;;;;;9.07;7.80;;;;;;;11.22;88.46;101234.16;5014745;28;20042;-78
2021/10/14 09:07:09;;;;;;;8.45;7.45;;;;;;;11.18;88.08;101233.25;5017519;28;20038;-78
2021/10/14 09:09:39;;;;;;;10.40;8.23;;;;;;;11.22;88.39;101234.16;5030948;28;20045;-79
2021/10/14 09:12:06;;;;;;;10.05;9.05;;;;;;;11.22;87.95;101231.53;5018226;28;20030;-79
2021/10/14 09:14:31;;;;;;;10.60;8.88;;;;;;;11.25;88.13;101228.88;5016691;28;20041;-79
2021/10/14 09:16:57;;;;;;;9.80;8.40;;;;;;;11.38;87.90;101221.88;5012839;28;20404;-79
2021/10/14 09:19:24;;;;;;;10.43;9.30;;;;;;;11.37;87.74;101214.81;5014932;28;20042;-78
2021/10/14 09:21:58;;;;;;;11.05;8.13;;;;;;;11.43;87.39;101222.75;5014012;28;20037;-79
2021/10/14 09:24:30;;;;;;;9.07;8.18;;;;;;;11.45;87.46;101217.44;5016027;28;20068;-77
2021/10/14 09:26:56;;;;;;;10.23;8.98;;;;;;;11.52;87.05;101221.88;5027904;28;20034;-78
2021/10/14 09:29:25;;;;;;;10.98;9.80;;;;;;;11.49;86.47;101224.53;5016102;28;20248;-78
2021/10/14 09:31:57;;;;;;;9.50;8.52;;;;;;;11.55;86.19;101221.88;5019040;28;20105;-78
2021/10/14 09:34:24;;;;;;;11.63;10.43;;;;;;;11.46;87.08;101220.13;5019508;28;20034;-78
2021/10/14 09:36:49;;;;;;;11.00;9.90;;;;;;;11.52;86.98;101224.53;5019856;28;20042;-79
2021/10/14 09:39:15;;;;;;;13.07;10.43;;;;;;;11.50;87.37;101227.19;5038324;28;20087;-79
2021/10/14 09:41:41;;;;;;;12.98;10.73;;;;;;;11.45;87.56;101226.28;5037594;28;20496;-78
2021/10/14 09:44:13;;;;;;;11.68;10.50;;;;;;;11.51;87.37;101223.66;5015572;28;20042;-78
2021/10/14 09:46:44;;;;;;;12.25;10.90;;;;;;;11.53;87.38;101226.31;5023974;28;20044;-78
2021/10/14 09:49:25;;;;;;;12.38;10.90;;;;;;;11.58;87.14;101225.44;5031634;28;20031;-78
2021/10/14 09:51:51;;;;;;;10.52;9.45;;;;;;;11.65;86.91;101223.66;5021216;28;20497;-77
2021/10/14 09:54:17;;;;;;;12.02;10.18;;;;;;;11.61;86.73;101222.78;5022424;28;20052;-79
2021/10/14 09:56:42;;;;;;;11.25;10.05;;;;;;;11.61;86.11;101222.78;5022015;28;20034;-78
2021/10/14 09:59:08;;;;;;;13.80;11.20;;;;;;;11.41;87.41;101225.38;5017164;28;20038;-78
2021/10/14 10:01:42;;;;;;;14.20;11.10;;;;;;;11.52;87.47;101224.53;5018496;28;20037;-77
2021/10/14 10:04:09;;;;;;;15.13;12.48;;;;;;;11.49;87.40;101225.41;5014826;28;20034;-78
2021/10/14 10:06:36;;;;;;;13.95;12.60;;;;;;;11.68;86.85;101228.06;5023564;28;20493;-78
2021/10/14 10:09:22;;;;;;;13.63;10.98;;;;;;;11.80;86.62;101223.66;5028611;28;20049;-79
2021/10/14 10:11:57;;;;;;;18.10;14.00;;;;;;;11.79;86.31;101221.91;5019511;28;20443;-78
2021/10/14 10:14:24;;;;;;;13.80;12.27;;;;;;;11.78;86.10;101222.78;5001630;28;20056;-77
2021/10/14 10:16:58;;;;;;;15.32;11.95;;;;;;;11.74;86.15;101228.97;5008404;28;20498;-78
2021/10/14 10:19:41;;;;;;;16.30;11.73;;;;;;;11.75;86.01;101220.13;5010964;28;20062;-79
2021/10/14 10:22:08;;;;;;;13.85;12.45;;;;;;;11.66;87.14;101222.78;5013782;28;20066;-78
2021/10/14 10:24:34;;;;;;;16.90;14.55;;;;;;;11.72;87.06;101220.13;5018389;28;20485;-79
2021/10/14 10:27:02;;;;;;;15.98;13.70;;;;;;;11.71;87.91;101223.66;5013933;28;20046;-78
2021/10/14 10:29:40;;;;;;;15.77;14.07;;;;;;;11.85;87.22;101219.25;5004877;28;20030;-78
2021/10/14 10:32:06;;;;;;;14.18;12.68;;;;;;;11.90;87.24;101214.00;5026923;28;20041;-78
2021/10/14 10:34:38;;;;;;;13.82;12.35;;;;;;;11.95;87.03;101212.22;5038940;28;20036;-78
2021/10/14 10:37:24;;;;;;;11.35;10.13;;;;;;;12.01;86.85;101213.97;5005328;28;20037;-79
2021/10/14 10:39:54;;;;;;;15.73;13.98;;;;;;;12.16;87.05;101205.16;5017398;28;20504;-79
2021/10/14 10:42:29;;;;;;;16.83;14.80;;;;;;;12.14;86.30;101212.19;5014769;28;20069;-79
2021/10/14 10:45:06;;;;;;;14.13;11.48;;;;;;;12.12;85.74;101214.84;5017095;28;20037;-79
2021/10/14 10:47:42;;;;;;;12.02;10.82;;;;;;;12.03;86.04;101212.22;5015574;28;20488;-79
2021/10/14 10:50:11;;;;;;;11.90;10.45;;;;;;;12.11;85.92;101213.09;5016125;28;20448;-79
2021/10/14 10:52:43;;;;;;;12.50;11.30;;;;;;;12.15;86.29;101208.66;5011871;28;20038;-79
2021/10/14 10:55:33;;;;;;;11.95;10.75;;;;;;;12.20;86.77;101201.59;5017226;28;20038;-78
2021/10/14 10:58:01;;;;;;;10.15;9.15;;;;;;;12.25;86.42;101199.81;5032771;28;20039;-79
2021/10/14 11:00:26;;;;;;;9.43;8.52;;;;;;;12.22;86.08;101200.72;5030433;28;20077;-78
2021/10/14 11:03:22;;;;;;;9.02;7.57;;;;;;;12.11;87.25;101197.22;5013792;28;20037;-79
2021/10/14 11:05:59;;;;;;;7.70;6.95;;;;;;;12.09;88.36;101187.50;5030050;28;20036;-79
2021/10/14 11:08:27;;;;;;;7.70;6.90;;;;;;;12.31;88.66;101188.34;5034412;28;20491;-79
2021/10/14 11:11:15;;;;;;;7.68;6.53;;;;;;;12.31;87.42;101189.22;5029278;28;20038;-80
2021/10/14 11:13:44;;;;;;;7.25;6.55;;;;;;;12.34;88.19;101175.09;5014591;28;20101;-79
2021/10/14 11:16:11;;;;;;;6.60;4.43;;;;;;;12.36;87.32;101182.13;5014714;28;20497;-79
2021/10/14 11:18:39;;;;;;;5.50;4.53;;;;;;;12.20;87.58;101191.00;5014126;28;20038;-79